sensor_id;sensor_type;location;lat;lon;timestamp;temperature;humidity
15103;DHT22;7652;53.584;9.998;2023-06-24T00:00:38;17.30;99.90
15103;DHT22;7652;53.584;9.998;2023-06-24T00:04:01;17.30;99.90
15103;DHT22;7652;53.584;9.998;2023-06-24T00:07:23;17.30;99.90
15103;DHT22;7652;53.584;9.998;2023-06-24T00:10:47;17.20;99.90
15103;DHT22;7652;53.584;9.998;2023-06-24T00:14:08;17.30;99.90
15103;DHT22;7652;53.584;9.998;2023-06-24T00:17:31;17.20;99.90
15103;DHT22;7652;53.584;9.998;2023-06-24T00:20:54;17.20;99.90
15103;DHT22;7652;53.584;9.998;2023-06-24T00:24:16;17.20;99.90
15103;DHT22;7652;53.584;9.998;2023-06-24T00:27:39;17.20;99.90
15103;DHT22;7652;53.584;9.998;2023-06-24T00:31:01;17.20;99.90
15103;DHT22;7652;53.584;9.998;2023-06-24T00:34:23;17.20;99.90
15103;DHT22;7652;53.584;9.998;2023-06-24T00:37:46;17.20;99.90
15103;DHT22;7652;53.584;9.998;2023-06-24T00:41:08;17.10;99.90
15103;DHT22;7652;53.584;9.998;2023-06-24T00:44:29;17.10;99.90
15103;DHT22;7652;53.584;9.998;2023-06-24T00:47:51;17.10;99.90
15103;DHT22;7652;53.584;9.998;2023-06-24T00:51:14;17.00;99.90
15103;DHT22;7652;53.584;9.998;2023-06-24T00:54:37;17.00;99.90
15103;DHT22;7652;53.584;9.998;2023-06-24T00:57:58;16.90;99.90
15103;DHT22;7652;53.584;9.998;2023-06-24T01:01:21;16.90;99.90
15103;DHT22;7652;53.584;9.998;2023-06-24T01:04:44;16.90;99.90
15103;DHT22;7652;53.584;9.998;2023-06-24T01:08:06;16.90;99.90
15103;DHT22;7652;53.584;9.998;2023-06-24T01:11:30;16.80;99.90
15103;DHT22;7652;53.584;9.998;2023-06-24T01:14:51;16.80;99.90
15103;DHT22;7652;53.584;9.998;2023-06-24T01:18:21;16.80;99.90
15103;DHT22;7652;53.584;9.998;2023-06-24T01:21:52;16.80;99.90
15103;DHT22;7652;53.584;9.998;2023-06-24T01:25:29;16.80;99.90
15103;DHT22;7652;53.584;9.998;2023-06-24T01:29:15;16.80;99.90
15103;DHT22;7652;53.584;9.998;2023-06-24T01:32:49;16.70;99.90
15103;DHT22;7652;53.584;9.998;2023-06-24T01:36:13;16.70;99.90
15103;DHT22;7652;53.584;9.998;2023-06-24T01:39:43;16.60;99.90
15103;DHT22;7652;53.584;9.998;2023-06-24T01:43:09;16.60;99.90
15103;DHT22;7652;53.584;9.998;2023-06-24T01:46:31;16.50;99.90
15103;DHT22;7652;53.584;9.998;2023-06-24T01:49:58;16.50;99.90
15103;DHT22;7652;53.584;9.998;2023-06-24T01:53:20;16.50;99.90
15103;DHT22;7652;53.584;9.998;2023-06-24T01:56:43;16.50;99.90
15103;DHT22;7652;53.584;9.998;2023-06-24T02:00:06;16.50;99.90
15103;DHT22;7652;53.584;9.998;2023-06-24T02:03:29;16.60;99.90
15103;DHT22;7652;53.584;9.998;2023-06-24T02:06:54;16.50;99.90
15103;DHT22;7652;53.584;9.998;2023-06-24T02:10:16;16.50;99.90
15103;DHT22;7652;53.584;9.998;2023-06-24T02:13:39;16.50;99.90
15103;DHT22;7652;53.584;9.998;2023-06-24T02:17:04;16.50;99.90
15103;DHT22;7652;53.584;9.998;2023-06-24T02:20:27;16.50;99.90
15103;DHT22;7652;53.584;9.998;2023-06-24T02:23:51;16.50;99.90
15103;DHT22;7652;53.584;9.998;2023-06-24T02:27:13;16.50;99.90
15103;DHT22;7652;53.584;9.998;2023-06-24T02:30:35;16.50;99.90
15103;DHT22;7652;53.584;9.998;2023-06-24T02:33:57;16.50;99.90
15103;DHT22;7652;53.584;9.998;2023-06-24T02:37:18;16.50;99.90
15103;DHT22;7652;53.584;9.998;2023-06-24T02:40:43;16.30;99.90
15103;DHT22;7652;53.584;9.998;2023-06-24T02:44:04;16.30;99.90
15103;DHT22;7652;53.584;9.998;2023-06-24T02:47:26;16.20;99.90
15103;DHT22;7652;53.584;9.998;2023-06-24T02:50:48;16.20;99.90
15103;DHT22;7652;53.584;9.998;2023-06-24T02:54:11;16.20;99.90
15103;DHT22;7652;53.584;9.998;2023-06-24T02:57:34;16.10;99.90
15103;DHT22;7652;53.584;9.998;2023-06-24T03:00:58;16.10;99.90
15103;DHT22;7652;53.584;9.998;2023-06-24T03:04:20;16.20;99.90
15103;DHT22;7652;53.584;9.998;2023-06-24T03:07:42;16.20;99.90
15103;DHT22;7652;53.584;9.998;2023-06-24T03:11:03;16.30;99.90
15103;DHT22;7652;53.584;9.998;2023-06-24T03:14:26;16.20;99.90
15103;DHT22;7652;53.584;9.998;2023-06-24T03:17:50;16.10;99.90
15103;DHT22;7652;53.584;9.998;2023-06-24T03:21:12;16.10;99.90
15103;DHT22;7652;53.584;9.998;2023-06-24T03:24:34;16.10;99.90
15103;DHT22;7652;53.584;9.998;2023-06-24T03:27:55;16.10;99.90
15103;DHT22;7652;53.584;9.998;2023-06-24T03:31:18;16.00;99.90
15103;DHT22;7652;53.584;9.998;2023-06-24T03:34:43;16.00;99.90
15103;DHT22;7652;53.584;9.998;2023-06-24T03:38:05;16.10;99.90
15103;DHT22;7652;53.584;9.998;2023-06-24T03:41:26;16.10;99.90
15103;DHT22;7652;53.584;9.998;2023-06-24T03:44:48;16.10;99.90
15103;DHT22;7652;53.584;9.998;2023-06-24T03:48:10;16.10;99.90
15103;DHT22;7652;53.584;9.998;2023-06-24T03:51:32;16.10;99.90
15103;DHT22;7652;53.584;9.998;2023-06-24T03:54:53;16.20;99.90
15103;DHT22;7652;53.584;9.998;2023-06-24T03:58:15;16.30;99.90
15103;DHT22;7652;53.584;9.998;2023-06-24T04:01:37;16.40;99.90
15103;DHT22;7652;53.584;9.998;2023-06-24T04:05:00;16.40;99.90
15103;DHT22;7652;53.584;9.998;2023-06-24T04:08:22;16.50;99.90
15103;DHT22;7652;53.584;9.998;2023-06-24T04:11:45;16.50;99.90
15103;DHT22;7652;53.584;9.998;2023-06-24T04:15:08;16.60;99.90
15103;DHT22;7652;53.584;9.998;2023-06-24T04:18:29;16.60;99.90
15103;DHT22;7652;53.584;9.998;2023-06-24T04:21:52;16.60;99.90
15103;DHT22;7652;53.584;9.998;2023-06-24T04:25:13;16.60;99.90
15103;DHT22;7652;53.584;9.998;2023-06-24T04:28:34;16.60;99.90
15103;DHT22;7652;53.584;9.998;2023-06-24T04:31:56;16.60;99.90
15103;DHT22;7652;53.584;9.998;2023-06-24T04:35:17;16.70;99.90
15103;DHT22;7652;53.584;9.998;2023-06-24T04:38:40;16.80;99.90
15103;DHT22;7652;53.584;9.998;2023-06-24T04:42:02;16.90;99.90
15103;DHT22;7652;53.584;9.998;2023-06-24T04:45:24;17.00;99.90
15103;DHT22;7652;53.584;9.998;2023-06-24T04:48:45;16.90;99.90
15103;DHT22;7652;53.584;9.998;2023-06-24T04:52:07;17.00;99.90
15103;DHT22;7652;53.584;9.998;2023-06-24T04:55:29;17.00;99.90
15103;DHT22;7652;53.584;9.998;2023-06-24T04:58:51;17.10;99.90
15103;DHT22;7652;53.584;9.998;2023-06-24T05:02:12;17.20;99.90
15103;DHT22;7652;53.584;9.998;2023-06-24T05:05:33;17.20;99.90
15103;DHT22;7652;53.584;9.998;2023-06-24T05:08:56;17.40;99.90
15103;DHT22;7652;53.584;9.998;2023-06-24T05:12:19;17.40;99.90
15103;DHT22;7652;53.584;9.998;2023-06-24T05:15:40;17.50;99.90
15103;DHT22;7652;53.584;9.998;2023-06-24T05:19:01;17.50;99.90
15103;DHT22;7652;53.584;9.998;2023-06-24T05:22:23;17.50;99.90
15103;DHT22;7652;53.584;9.998;2023-06-24T05:25:45;17.60;99.90
15103;DHT22;7652;53.584;9.998;2023-06-24T05:29:08;17.80;99.90
15103;DHT22;7652;53.584;9.998;2023-06-24T05:32:30;17.90;99.90
15103;DHT22;7652;53.584;9.998;2023-06-24T05:35:51;17.90;99.90
15103;DHT22;7652;53.584;9.998;2023-06-24T05:39:13;17.90;99.90
15103;DHT22;7652;53.584;9.998;2023-06-24T05:42:34;18.10;99.90
15103;DHT22;7652;53.584;9.998;2023-06-24T05:45:57;18.30;99.90
15103;DHT22;7652;53.584;9.998;2023-06-24T05:49:18;18.60;99.90
15103;DHT22;7652;53.584;9.998;2023-06-24T05:52:40;18.70;99.90
15103;DHT22;7652;53.584;9.998;2023-06-24T05:56:01;19.30;99.90
15103;DHT22;7652;53.584;9.998;2023-06-24T05:59:23;19.90;99.90
15103;DHT22;7652;53.584;9.998;2023-06-24T06:02:46;20.40;99.90
15103;DHT22;7652;53.584;9.998;2023-06-24T06:06:08;20.60;99.90
15103;DHT22;7652;53.584;9.998;2023-06-24T06:09:29;20.60;99.90
15103;DHT22;7652;53.584;9.998;2023-06-24T06:12:51;21.00;99.90
15103;DHT22;7652;53.584;9.998;2023-06-24T06:16:13;21.30;99.90
15103;DHT22;7652;53.584;9.998;2023-06-24T06:19:36;21.20;99.90
15103;DHT22;7652;53.584;9.998;2023-06-24T06:22:59;20.80;99.90
15103;DHT22;7652;53.584;9.998;2023-06-24T06:26:21;20.70;99.90
15103;DHT22;7652;53.584;9.998;2023-06-24T06:29:43;21.20;99.90
15103;DHT22;7652;53.584;9.998;2023-06-24T06:33:04;21.40;99.90
15103;DHT22;7652;53.584;9.998;2023-06-24T06:36:27;21.30;99.90
15103;DHT22;7652;53.584;9.998;2023-06-24T06:39:49;21.10;99.90
15103;DHT22;7652;53.584;9.998;2023-06-24T06:43:10;21.60;99.90
15103;DHT22;7652;53.584;9.998;2023-06-24T06:46:32;21.90;99.90
15103;DHT22;7652;53.584;9.998;2023-06-24T06:49:54;21.90;99.90
15103;DHT22;7652;53.584;9.998;2023-06-24T06:53:17;22.50;99.90
15103;DHT22;7652;53.584;9.998;2023-06-24T06:56:38;22.70;99.90
15103;DHT22;7652;53.584;9.998;2023-06-24T07:00:00;22.80;99.90
15103;DHT22;7652;53.584;9.998;2023-06-24T07:03:21;22.70;99.90
15103;DHT22;7652;53.584;9.998;2023-06-24T07:06:43;22.40;99.90
15103;DHT22;7652;53.584;9.998;2023-06-24T07:10:06;21.90;99.90
15103;DHT22;7652;53.584;9.998;2023-06-24T07:13:28;21.70;99.90
15103;DHT22;7652;53.584;9.998;2023-06-24T07:16:49;21.60;99.90
15103;DHT22;7652;53.584;9.998;2023-06-24T07:20:11;21.50;99.90
15103;DHT22;7652;53.584;9.998;2023-06-24T07:23:32;21.50;99.90
15103;DHT22;7652;53.584;9.998;2023-06-24T07:26:55;21.50;99.90
15103;DHT22;7652;53.584;9.998;2023-06-24T07:30:16;21.50;99.90
15103;DHT22;7652;53.584;9.998;2023-06-24T07:33:38;21.60;99.90
15103;DHT22;7652;53.584;9.998;2023-06-24T07:36:59;21.60;99.90
15103;DHT22;7652;53.584;9.998;2023-06-24T07:40:38;21.50;99.90
15103;DHT22;7652;53.584;9.998;2023-06-24T07:44:01;21.60;99.90
15103;DHT22;7652;53.584;9.998;2023-06-24T07:47:23;21.70;99.90
15103;DHT22;7652;53.584;9.998;2023-06-24T07:50:44;21.80;99.90
15103;DHT22;7652;53.584;9.998;2023-06-24T07:54:05;21.90;99.90
15103;DHT22;7652;53.584;9.998;2023-06-24T07:57:27;22.20;99.90
15103;DHT22;7652;53.584;9.998;2023-06-24T08:00:50;22.50;99.90
15103;DHT22;7652;53.584;9.998;2023-06-24T08:04:11;22.60;99.90
15103;DHT22;7652;53.584;9.998;2023-06-24T08:07:32;22.60;99.90
15103;DHT22;7652;53.584;9.998;2023-06-24T08:10:54;22.60;99.90
15103;DHT22;7652;53.584;9.998;2023-06-24T08:14:15;22.60;99.90
15103;DHT22;7652;53.584;9.998;2023-06-24T08:17:38;22.50;99.90
15103;DHT22;7652;53.584;9.998;2023-06-24T08:21:00;22.30;99.90
15103;DHT22;7652;53.584;9.998;2023-06-24T08:24:21;22.20;99.90
15103;DHT22;7652;53.584;9.998;2023-06-24T08:27:43;22.10;99.90
15103;DHT22;7652;53.584;9.998;2023-06-24T08:31:06;22.10;99.90
15103;DHT22;7652;53.584;9.998;2023-06-24T08:34:29;22.20;99.90
15103;DHT22;7652;53.584;9.998;2023-06-24T08:37:51;22.20;99.90
15103;DHT22;7652;53.584;9.998;2023-06-24T08:41:12;22.10;99.90
15103;DHT22;7652;53.584;9.998;2023-06-24T08:44:33;22.20;99.90
15103;DHT22;7652;53.584;9.998;2023-06-24T08:47:55;22.30;99.90
15103;DHT22;7652;53.584;9.998;2023-06-24T08:51:20;22.20;99.90
15103;DHT22;7652;53.584;9.998;2023-06-24T08:54:46;22.10;99.90
15103;DHT22;7652;53.584;9.998;2023-06-24T08:58:09;22.10;99.90
15103;DHT22;7652;53.584;9.998;2023-06-24T09:01:31;22.20;99.90
15103;DHT22;7652;53.584;9.998;2023-06-24T09:04:52;22.30;99.90
15103;DHT22;7652;53.584;9.998;2023-06-24T09:08:16;22.40;99.90
15103;DHT22;7652;53.584;9.998;2023-06-24T09:11:38;22.30;99.90
15103;DHT22;7652;53.584;9.998;2023-06-24T09:15:00;22.40;99.90
15103;DHT22;7652;53.584;9.998;2023-06-24T09:18:30;22.50;99.90
15103;DHT22;7652;53.584;9.998;2023-06-24T09:21:52;22.60;99.90
15103;DHT22;7652;53.584;9.998;2023-06-24T09:25:18;22.60;99.90
15103;DHT22;7652;53.584;9.998;2023-06-24T09:28:39;22.70;99.90
15103;DHT22;7652;53.584;9.998;2023-06-24T09:32:04;22.80;99.90
15103;DHT22;7652;53.584;9.998;2023-06-24T09:35:26;22.90;99.90
15103;DHT22;7652;53.584;9.998;2023-06-24T09:38:47;23.00;99.90
15103;DHT22;7652;53.584;9.998;2023-06-24T09:42:10;23.00;99.90
15103;DHT22;7652;53.584;9.998;2023-06-24T09:45:33;23.10;99.90
15103;DHT22;7652;53.584;9.998;2023-06-24T09:48:55;23.00;99.90
15103;DHT22;7652;53.584;9.998;2023-06-24T09:52:19;23.00;99.90
15103;DHT22;7652;53.584;9.998;2023-06-24T09:55:41;23.00;99.90
15103;DHT22;7652;53.584;9.998;2023-06-24T09:59:08;23.10;99.90
15103;DHT22;7652;53.584;9.998;2023-06-24T10:02:31;23.20;99.90
15103;DHT22;7652;53.584;9.998;2023-06-24T10:05:53;23.30;99.90
15103;DHT22;7652;53.584;9.998;2023-06-24T10:09:15;23.30;99.90
15103;DHT22;7652;53.584;9.998;2023-06-24T10:12:38;23.30;99.90
15103;DHT22;7652;53.584;9.998;2023-06-24T10:16:01;23.40;99.90
15103;DHT22;7652;53.584;9.998;2023-06-24T10:19:23;23.50;99.90
15103;DHT22;7652;53.584;9.998;2023-06-24T10:22:46;23.70;99.90
15103;DHT22;7652;53.584;9.998;2023-06-24T10:26:08;23.80;99.90
15103;DHT22;7652;53.584;9.998;2023-06-24T10:29:31;24.00;99.90
15103;DHT22;7652;53.584;9.998;2023-06-24T10:32:54;23.90;99.90
15103;DHT22;7652;53.584;9.998;2023-06-24T10:36:31;23.90;99.90
15103;DHT22;7652;53.584;9.998;2023-06-24T10:39:53;24.00;99.90
15103;DHT22;7652;53.584;9.998;2023-06-24T10:43:30;24.00;99.90
15103;DHT22;7652;53.584;9.998;2023-06-24T10:46:53;24.20;99.90
15103;DHT22;7652;53.584;9.998;2023-06-24T10:50:19;24.30;99.90
15103;DHT22;7652;53.584;9.998;2023-06-24T10:53:41;24.40;99.90
15103;DHT22;7652;53.584;9.998;2023-06-24T10:57:04;24.40;99.90
15103;DHT22;7652;53.584;9.998;2023-06-24T11:00:25;24.40;99.90
15103;DHT22;7652;53.584;9.998;2023-06-24T11:03:47;24.50;99.90
15103;DHT22;7652;53.584;9.998;2023-06-24T11:07:09;24.70;99.90
15103;DHT22;7652;53.584;9.998;2023-06-24T11:10:31;24.70;99.90
15103;DHT22;7652;53.584;9.998;2023-06-24T11:13:53;24.80;99.90
15103;DHT22;7652;53.584;9.998;2023-06-24T11:17:15;24.70;99.90
15103;DHT22;7652;53.584;9.998;2023-06-24T11:20:37;24.80;99.90
15103;DHT22;7652;53.584;9.998;2023-06-24T11:24:02;24.80;99.90
15103;DHT22;7652;53.584;9.998;2023-06-24T11:27:25;24.80;99.90
15103;DHT22;7652;53.584;9.998;2023-06-24T11:30:47;24.90;99.90
15103;DHT22;7652;53.584;9.998;2023-06-24T11:34:09;25.00;99.90
15103;DHT22;7652;53.584;9.998;2023-06-24T11:37:31;25.20;99.90
15103;DHT22;7652;53.584;9.998;2023-06-24T11:40:57;25.20;99.90
15103;DHT22;7652;53.584;9.998;2023-06-24T11:44:19;25.30;99.90
15103;DHT22;7652;53.584;9.998;2023-06-24T11:47:41;25.50;99.90
15103;DHT22;7652;53.584;9.998;2023-06-24T11:51:03;25.70;99.90
15103;DHT22;7652;53.584;9.998;2023-06-24T11:54:24;25.70;99.90
15103;DHT22;7652;53.584;9.998;2023-06-24T11:57:55;25.70;99.90
15103;DHT22;7652;53.584;9.998;2023-06-24T12:01:16;25.70;99.90
15103;DHT22;7652;53.584;9.998;2023-06-24T12:04:38;25.80;99.90
15103;DHT22;7652;53.584;9.998;2023-06-24T12:08:05;25.80;99.90
15103;DHT22;7652;53.584;9.998;2023-06-24T12:11:27;25.80;99.90
15103;DHT22;7652;53.584;9.998;2023-06-24T12:14:50;25.80;99.90
15103;DHT22;7652;53.584;9.998;2023-06-24T12:18:12;25.80;99.90
15103;DHT22;7652;53.584;9.998;2023-06-24T12:21:33;25.60;99.90
15103;DHT22;7652;53.584;9.998;2023-06-24T12:24:55;25.60;99.90
15103;DHT22;7652;53.584;9.998;2023-06-24T12:28:16;25.60;99.90
15103;DHT22;7652;53.584;9.998;2023-06-24T12:31:39;25.80;99.90
15103;DHT22;7652;53.584;9.998;2023-06-24T12:35:01;27.00;99.90
15103;DHT22;7652;53.584;9.998;2023-06-24T12:38:23;28.20;99.90
15103;DHT22;7652;53.584;9.998;2023-06-24T12:41:44;28.20;99.90
15103;DHT22;7652;53.584;9.998;2023-06-24T12:45:06;28.10;99.90
15103;DHT22;7652;53.584;9.998;2023-06-24T12:48:29;28.00;99.90
15103;DHT22;7652;53.584;9.998;2023-06-24T12:51:51;27.80;99.90
15103;DHT22;7652;53.584;9.998;2023-06-24T12:55:12;28.40;99.90
15103;DHT22;7652;53.584;9.998;2023-06-24T12:58:36;29.00;99.90
15103;DHT22;7652;53.584;9.998;2023-06-24T13:01:58;29.20;99.90
15103;DHT22;7652;53.584;9.998;2023-06-24T13:05:20;28.50;99.90
15103;DHT22;7652;53.584;9.998;2023-06-24T13:08:42;27.80;99.90
15103;DHT22;7652;53.584;9.998;2023-06-24T13:12:05;27.40;99.90
15103;DHT22;7652;53.584;9.998;2023-06-24T13:15:28;27.00;99.90
15103;DHT22;7652;53.584;9.998;2023-06-24T13:18:51;27.60;99.90
15103;DHT22;7652;53.584;9.998;2023-06-24T13:22:13;27.60;99.90
15103;DHT22;7652;53.584;9.998;2023-06-24T13:25:35;27.60;99.90
15103;DHT22;7652;53.584;9.998;2023-06-24T13:28:56;27.70;99.90
15103;DHT22;7652;53.584;9.998;2023-06-24T13:32:18;27.60;99.90
15103;DHT22;7652;53.584;9.998;2023-06-24T13:35:40;27.40;99.90
15103;DHT22;7652;53.584;9.998;2023-06-24T13:39:03;27.40;99.90
15103;DHT22;7652;53.584;9.998;2023-06-24T13:42:25;27.50;99.90
15103;DHT22;7652;53.584;9.998;2023-06-24T13:45:47;27.30;99.90
15103;DHT22;7652;53.584;9.998;2023-06-24T13:49:10;27.00;99.90
15103;DHT22;7652;53.584;9.998;2023-06-24T13:52:31;27.00;99.90
15103;DHT22;7652;53.584;9.998;2023-06-24T13:55:54;27.10;99.90
15103;DHT22;7652;53.584;9.998;2023-06-24T13:59:16;26.90;99.90
15103;DHT22;7652;53.584;9.998;2023-06-24T14:02:37;26.90;99.90
15103;DHT22;7652;53.584;9.998;2023-06-24T14:05:59;27.00;99.90
15103;DHT22;7652;53.584;9.998;2023-06-24T14:09:21;26.90;99.90
15103;DHT22;7652;53.584;9.998;2023-06-24T14:12:44;26.80;99.90
15103;DHT22;7652;53.584;9.998;2023-06-24T14:16:06;26.50;99.90
15103;DHT22;7652;53.584;9.998;2023-06-24T14:19:27;26.40;99.90
15103;DHT22;7652;53.584;9.998;2023-06-24T14:22:49;26.50;99.90
15103;DHT22;7652;53.584;9.998;2023-06-24T14:26:11;26.60;99.90
15103;DHT22;7652;53.584;9.998;2023-06-24T14:29:34;26.80;99.90
15103;DHT22;7652;53.584;9.998;2023-06-24T14:32:55;26.80;99.90
15103;DHT22;7652;53.584;9.998;2023-06-24T14:36:16;26.90;99.90
15103;DHT22;7652;53.584;9.998;2023-06-24T14:39:39;26.90;99.90
15103;DHT22;7652;53.584;9.998;2023-06-24T14:43:01;26.60;99.90
15103;DHT22;7652;53.584;9.998;2023-06-24T14:46:24;26.70;99.90
15103;DHT22;7652;53.584;9.998;2023-06-24T14:49:46;26.70;99.90
15103;DHT22;7652;53.584;9.998;2023-06-24T14:53:08;26.70;99.90
15103;DHT22;7652;53.584;9.998;2023-06-24T14:56:29;26.70;99.90
15103;DHT22;7652;53.584;9.998;2023-06-24T14:59:50;26.80;99.90
15103;DHT22;7652;53.584;9.998;2023-06-24T15:03:13;26.90;99.90
15103;DHT22;7652;53.584;9.998;2023-06-24T15:06:35;27.00;99.90
15103;DHT22;7652;53.584;9.998;2023-06-24T15:09:56;27.10;99.90
15103;DHT22;7652;53.584;9.998;2023-06-24T15:13:18;27.10;99.90
15103;DHT22;7652;53.584;9.998;2023-06-24T15:16:39;27.20;99.90
15103;DHT22;7652;53.584;9.998;2023-06-24T15:20:02;27.20;99.90
15103;DHT22;7652;53.584;9.998;2023-06-24T15:23:24;27.30;99.90
15103;DHT22;7652;53.584;9.998;2023-06-24T15:26:47;27.30;99.90
15103;DHT22;7652;53.584;9.998;2023-06-24T15:30:10;27.20;99.90
15103;DHT22;7652;53.584;9.998;2023-06-24T15:33:31;27.10;99.90
15103;DHT22;7652;53.584;9.998;2023-06-24T15:36:54;26.90;99.90
15103;DHT22;7652;53.584;9.998;2023-06-24T15:40:15;26.70;99.90
15103;DHT22;7652;53.584;9.998;2023-06-24T15:43:37;26.60;99.90
15103;DHT22;7652;53.584;9.998;2023-06-24T15:46:58;26.40;99.90
15103;DHT22;7652;53.584;9.998;2023-06-24T15:50:19;26.30;99.90
15103;DHT22;7652;53.584;9.998;2023-06-24T15:53:42;26.30;99.90
15103;DHT22;7652;53.584;9.998;2023-06-24T15:57:04;26.20;99.90
15103;DHT22;7652;53.584;9.998;2023-06-24T16:00:26;26.30;99.90
15103;DHT22;7652;53.584;9.998;2023-06-24T16:03:47;26.40;99.90
15103;DHT22;7652;53.584;9.998;2023-06-24T16:07:09;26.40;99.90
15103;DHT22;7652;53.584;9.998;2023-06-24T16:10:31;26.40;99.90
15103;DHT22;7652;53.584;9.998;2023-06-24T16:13:54;26.30;99.90
15103;DHT22;7652;53.584;9.998;2023-06-24T16:17:15;26.30;99.90
15103;DHT22;7652;53.584;9.998;2023-06-24T16:20:37;26.30;99.90
15103;DHT22;7652;53.584;9.998;2023-06-24T16:23:58;26.20;99.90
15103;DHT22;7652;53.584;9.998;2023-06-24T16:27:21;26.10;99.90
15103;DHT22;7652;53.584;9.998;2023-06-24T16:30:42;26.10;99.90
15103;DHT22;7652;53.584;9.998;2023-06-24T16:34:04;26.00;99.90
15103;DHT22;7652;53.584;9.998;2023-06-24T16:37:25;25.90;99.90
15103;DHT22;7652;53.584;9.998;2023-06-24T16:40:47;25.80;99.90
15103;DHT22;7652;53.584;9.998;2023-06-24T16:44:09;25.80;99.90
15103;DHT22;7652;53.584;9.998;2023-06-24T16:47:31;25.70;99.90
15103;DHT22;7652;53.584;9.998;2023-06-24T16:50:53;25.70;99.90
15103;DHT22;7652;53.584;9.998;2023-06-24T16:54:14;25.70;99.90
15103;DHT22;7652;53.584;9.998;2023-06-24T16:57:37;25.60;99.90
15103;DHT22;7652;53.584;9.998;2023-06-24T17:01:00;25.60;99.90
15103;DHT22;7652;53.584;9.998;2023-06-24T17:04:21;25.70;99.90
15103;DHT22;7652;53.584;9.998;2023-06-24T17:07:43;25.70;99.90
15103;DHT22;7652;53.584;9.998;2023-06-24T17:11:04;25.70;99.90
15103;DHT22;7652;53.584;9.998;2023-06-24T17:14:26;25.70;99.90
15103;DHT22;7652;53.584;9.998;2023-06-24T17:17:49;25.70;99.90
15103;DHT22;7652;53.584;9.998;2023-06-24T17:21:11;25.60;99.90
15103;DHT22;7652;53.584;9.998;2023-06-24T17:24:32;25.60;99.90
15103;DHT22;7652;53.584;9.998;2023-06-24T17:27:54;25.60;99.90
15103;DHT22;7652;53.584;9.998;2023-06-24T17:31:15;25.60;99.90
15103;DHT22;7652;53.584;9.998;2023-06-24T17:34:39;25.60;99.90
15103;DHT22;7652;53.584;9.998;2023-06-24T17:38:01;25.60;99.90
15103;DHT22;7652;53.584;9.998;2023-06-24T17:41:23;25.60;99.90
15103;DHT22;7652;53.584;9.998;2023-06-24T17:44:45;25.50;99.90
15103;DHT22;7652;53.584;9.998;2023-06-24T17:48:06;25.50;99.90
15103;DHT22;7652;53.584;9.998;2023-06-24T17:51:30;25.50;99.90
15103;DHT22;7652;53.584;9.998;2023-06-24T17:54:52;25.40;99.90
15103;DHT22;7652;53.584;9.998;2023-06-24T17:58:13;25.40;99.90
15103;DHT22;7652;53.584;9.998;2023-06-24T18:01:34;25.30;99.90
15103;DHT22;7652;53.584;9.998;2023-06-24T18:04:56;25.30;99.90
15103;DHT22;7652;53.584;9.998;2023-06-24T18:08:19;25.10;99.90
15103;DHT22;7652;53.584;9.998;2023-06-24T18:11:40;25.10;99.90
15103;DHT22;7652;53.584;9.998;2023-06-24T18:15:02;25.10;99.90
15103;DHT22;7652;53.584;9.998;2023-06-24T18:18:23;25.00;99.90
15103;DHT22;7652;53.584;9.998;2023-06-24T18:21:45;25.00;99.90
15103;DHT22;7652;53.584;9.998;2023-06-24T18:25:08;25.00;99.90
15103;DHT22;7652;53.584;9.998;2023-06-24T18:28:30;25.00;99.90
15103;DHT22;7652;53.584;9.998;2023-06-24T18:31:52;24.90;99.90
15103;DHT22;7652;53.584;9.998;2023-06-24T18:35:13;24.90;99.90
15103;DHT22;7652;53.584;9.998;2023-06-24T18:38:35;24.90;99.90
15103;DHT22;7652;53.584;9.998;2023-06-24T18:41:57;24.80;99.90
15103;DHT22;7652;53.584;9.998;2023-06-24T18:45:19;24.80;99.90
15103;DHT22;7652;53.584;9.998;2023-06-24T18:48:42;24.80;99.90
15103;DHT22;7652;53.584;9.998;2023-06-24T18:52:04;24.80;99.90
15103;DHT22;7652;53.584;9.998;2023-06-24T18:55:25;24.70;99.90
15103;DHT22;7652;53.584;9.998;2023-06-24T18:58:48;24.60;99.90
15103;DHT22;7652;53.584;9.998;2023-06-24T19:02:09;24.60;99.90
15103;DHT22;7652;53.584;9.998;2023-06-24T19:05:31;24.60;99.90
15103;DHT22;7652;53.584;9.998;2023-06-24T19:08:52;24.60;99.90
15103;DHT22;7652;53.584;9.998;2023-06-24T19:12:14;24.50;99.90
15103;DHT22;7652;53.584;9.998;2023-06-24T19:15:37;24.50;99.90
15103;DHT22;7652;53.584;9.998;2023-06-24T19:18:59;24.50;99.90
15103;DHT22;7652;53.584;9.998;2023-06-24T19:22:22;24.40;99.90
15103;DHT22;7652;53.584;9.998;2023-06-24T19:25:44;24.40;99.90
15103;DHT22;7652;53.584;9.998;2023-06-24T19:29:05;24.30;99.90
15103;DHT22;7652;53.584;9.998;2023-06-24T19:32:28;24.30;99.90
15103;DHT22;7652;53.584;9.998;2023-06-24T19:35:49;24.30;99.90
15103;DHT22;7652;53.584;9.998;2023-06-24T19:39:11;24.20;99.90
15103;DHT22;7652;53.584;9.998;2023-06-24T19:42:32;24.20;99.90
15103;DHT22;7652;53.584;9.998;2023-06-24T19:45:53;24.10;99.90
15103;DHT22;7652;53.584;9.998;2023-06-24T19:49:16;24.10;99.90
15103;DHT22;7652;53.584;9.998;2023-06-24T19:52:37;24.10;99.90
15103;DHT22;7652;53.584;9.998;2023-06-24T19:55:59;24.00;99.90
15103;DHT22;7652;53.584;9.998;2023-06-24T19:59:21;24.00;99.90
15103;DHT22;7652;53.584;9.998;2023-06-24T20:02:42;23.90;99.90
15103;DHT22;7652;53.584;9.998;2023-06-24T20:06:05;23.90;99.90
15103;DHT22;7652;53.584;9.998;2023-06-24T20:09:27;23.80;99.90
15103;DHT22;7652;53.584;9.998;2023-06-24T20:12:48;23.80;99.90
15103;DHT22;7652;53.584;9.998;2023-06-24T20:16:09;23.70;99.90
15103;DHT22;7652;53.584;9.998;2023-06-24T20:19:30;23.70;99.90
15103;DHT22;7652;53.584;9.998;2023-06-24T20:22:53;23.70;99.90
15103;DHT22;7652;53.584;9.998;2023-06-24T20:26:15;23.60;99.90
15103;DHT22;7652;53.584;9.998;2023-06-24T20:29:37;23.60;99.90
15103;DHT22;7652;53.584;9.998;2023-06-24T20:32:58;23.50;99.90
15103;DHT22;7652;53.584;9.998;2023-06-24T20:36:20;23.50;99.90
15103;DHT22;7652;53.584;9.998;2023-06-24T20:39:43;23.40;99.90
15103;DHT22;7652;53.584;9.998;2023-06-24T20:43:06;23.40;99.90
15103;DHT22;7652;53.584;9.998;2023-06-24T20:46:27;23.30;99.90
15103;DHT22;7652;53.584;9.998;2023-06-24T20:49:49;23.30;99.90
15103;DHT22;7652;53.584;9.998;2023-06-24T20:53:11;23.20;99.90
15103;DHT22;7652;53.584;9.998;2023-06-24T20:56:33;23.20;99.90
15103;DHT22;7652;53.584;9.998;2023-06-24T20:59:55;23.20;99.90
15103;DHT22;7652;53.584;9.998;2023-06-24T21:03:16;23.20;99.90
15103;DHT22;7652;53.584;9.998;2023-06-24T21:06:38;23.10;99.90
15103;DHT22;7652;53.584;9.998;2023-06-24T21:09:59;23.00;99.90
15103;DHT22;7652;53.584;9.998;2023-06-24T21:13:22;22.90;99.90
15103;DHT22;7652;53.584;9.998;2023-06-24T21:16:43;22.90;99.90
15103;DHT22;7652;53.584;9.998;2023-06-24T21:20:06;22.80;99.90
15103;DHT22;7652;53.584;9.998;2023-06-24T21:23:28;22.80;99.90
15103;DHT22;7652;53.584;9.998;2023-06-24T21:26:49;22.70;99.90
15103;DHT22;7652;53.584;9.998;2023-06-24T21:30:13;22.70;99.90
15103;DHT22;7652;53.584;9.998;2023-06-24T21:33:34;22.60;99.90
15103;DHT22;7652;53.584;9.998;2023-06-24T21:36:56;22.60;99.90